Aeroporto :
LOGIN :

Iscrizione | Disclaimer

   EN    FR    IT 

 










Sommario :    VFR   VFR Marginale   IFR   IFR Intensivo   IFR Molto Intensivo
Visibilità : 
Base nubi : 
>= 8 km
>= 3000ft
5 / 8 km
1000 / 3000 ft
1500m / 5 km
500 / 1000 ft
800 / 1500m
200 / 500 ft
< 800m
< 200 ft
Simboli :   Temporali  Nebbia  Neve Forte  Precipitazioni Forti  Vento > 20 kt
SIGMETs :   Varie  Temporali  Ghiacco  Turbolenza  Onda orograficha  Ceneri Vulcaniche






- Altitudine del aeroporto : 85 ft
- Codice IATA : SFA


DTTX - Thyna/El Maou - Sfax

ULTIMO METAR :
  • 221200Z 20010KT 9999 FEW033 19/04 Q1015

METARs OBSOLETI :
  • 221100Z 20009KT 9999 FEW033 20/03 Q1015
  • 221000Z 21008KT 9999 FEW033 19/02 Q1016

TAF TAF DTTX
Valido dal 22 a 12 ore il 23 a 12 ore UTC


221100Z 2212/2312 20010KT 9999 FEW033
BECMG 2217/2219 24005KT
BECMG 2307/2309 19015G25KT



MetMap, La meteo Aeronautica in un colpo d'occhio ! - Copyright ORBIFLY Dicembre 2007 - Disclaimer

ORBIFLY MET'MAP TEAM :

Programmazione e sviluppo : Alexandra Zaïnal
Concezione e sviluppo : Baudouin d'Aumeries
Co-Programmazione e sviluppo : Marc-Olivier Méhu
Supporto tecnico e logistico : Manuel Goepfert
Aiuto per la traduzione : Arnaldo La Scala

Contatto : metmap@orbifly.com




FONTI E CREDITI :

   NOAA